Time;durP1;ratioP1;P1;durP2;ratioP2;P2;SDS_P1;SDS_P2;PMS_P1;PMS_P2;Temp;Humidity;BMP_temperature;BMP_pressure;BME280_temperature;BME280_humidity;BME280_pressure;Samples;Min_cycle;Max_cycle;Signal;HPM_P1;HPM_P2
2022/12/23 00:01:49;;;;;;;31.93;14.50;;;;;;;4.51;100.00;99688.94;4849287;29;20117;-82
2022/12/23 00:04:18;;;;;;;31.67;13.83;;;;;;;4.51;100.00;99680.22;4855157;29;20041;-83
2022/12/23 00:06:44;;;;;;;32.20;13.63;;;;;;;4.53;100.00;99681.94;4829936;29;20042;-82
2022/12/23 00:09:16;;;;;;;28.30;12.43;;;;;;;4.53;100.00;99675.84;4868717;29;20444;-82
2022/12/23 00:15:04;;;;;;;30.80;14.20;;;;;;;4.50;100.00;99678.50;4825465;29;20046;-82
2022/12/23 00:17:15;;;;;;;25.63;12.87;;;;;;;4.43;100.00;99669.00;4842147;29;20065;-83
2022/12/23 00:19:48;;;;;;;28.42;14.18;;;;;;;4.44;100.00;99661.13;4819540;29;20125;-83
2022/12/23 00:22:15;;;;;;;26.70;13.57;;;;;;;4.43;100.00;99664.63;4853113;29;20049;-82
2022/12/23 00:24:41;;;;;;;29.83;13.70;;;;;;;4.42;100.00;99656.78;4872518;29;20045;-82
2022/12/23 00:27:08;;;;;;;27.27;13.37;;;;;;;4.43;100.00;99648.06;4855110;29;20045;-83
2022/12/23 00:29:35;;;;;;;27.27;12.80;;;;;;;4.37;100.00;99659.47;4856411;29;20045;-82
2022/12/23 00:32:01;;;;;;;28.23;12.63;;;;;;;4.38;100.00;99657.72;4873708;29;20051;-82
2022/12/23 00:34:28;;;;;;;27.17;12.67;;;;;;;4.38;100.00;99655.13;4870814;29;20061;-83
2022/12/23 00:36:55;;;;;;;25.57;11.87;;;;;;;4.37;100.00;99651.63;4824163;29;20526;-83
2022/12/23 00:45:14;;;;;;;21.00;10.33;;;;;;;4.32;100.00;99653.44;4871237;29;20057;-83
2022/12/23 00:50:26;;;;;;;23.40;12.73;;;;;;;4.31;100.00;99648.22;4872684;29;20049;-82
2022/12/23 00:52:53;;;;;;;22.63;10.93;;;;;;;4.29;100.00;99645.63;4869590;29;20522;-83
2022/12/23 00:55:20;;;;;;;21.60;10.47;;;;;;;4.29;100.00;99648.25;4869573;29;20101;-82
2022/12/23 00:57:47;;;;;;;20.97;10.57;;;;;;;4.30;100.00;99646.50;4850568;29;20518;-82
2022/12/23 01:00:14;;;;;;;24.53;11.13;;;;;;;4.29;100.00;99647.34;4842579;29;20037;-83
2022/12/23 01:05:35;;;;;;;19.53;8.87;;;;;;;4.26;100.00;99639.56;4854945;29;20708;-83
2022/12/23 01:08:09;;;;;;;20.63;10.23;;;;;;;4.27;100.00;99636.06;4873661;29;20039;-82
2022/12/23 01:10:37;;;;;;;21.63;10.43;;;;;;;4.27;100.00;99622.97;4863687;29;20045;-83
2022/12/23 01:13:05;;;;;;;22.37;10.20;;;;;;;4.28;100.00;99620.34;4829699;29;20041;-82
2022/12/23 01:15:32;;;;;;;22.43;11.13;;;;;;;4.26;100.00;99618.63;4857571;29;20678;-83
2022/12/23 01:17:58;;;;;;;23.47;11.10;;;;;;;4.25;100.00;99617.78;4857475;29;20496;-83
2022/12/23 01:20:25;;;;;;;20.87;9.47;;;;;;;4.27;100.00;99612.53;4871980;29;20075;-82
2022/12/23 01:22:52;;;;;;;21.80;10.37;;;;;;;4.24;100.00;99610.81;4845146;29;20064;-84
2022/12/23 01:25:18;;;;;;;21.70;9.90;;;;;;;4.23;100.00;99619.53;4860712;29;20049;-82
2022/12/23 01:27:45;;;;;;;21.93;11.37;;;;;;;4.17;100.00;99614.38;4844004;29;20038;-82
2022/12/23 01:30:12;;;;;;;17.63;9.43;;;;;;;4.14;100.00;99612.69;4860096;29;20049;-83
2022/12/23 01:32:39;;;;;;;18.80;9.43;;;;;;;4.12;100.00;99614.44;4871987;29;20052;-82
2022/12/23 01:35:05;;;;;;;19.33;10.03;;;;;;;4.11;100.00;99609.22;4844614;29;20348;-82
2022/12/23 01:37:32;;;;;;;17.97;9.27;;;;;;;4.09;100.00;99605.75;4858494;29;20052;-83
2022/12/23 01:39:59;;;;;;;20.13;9.73;;;;;;;4.10;100.00;99591.81;4859271;29;20496;-82
2022/12/23 01:42:44;;;;;;;18.10;9.30;;;;;;;4.14;100.00;99590.91;4873319;29;20050;-82
2022/12/23 01:45:20;;;;;;;23.43;10.60;;;;;;;4.16;100.00;99584.75;4867629;29;20044;-82
2022/12/23 01:48:03;;;;;;;24.13;9.53;;;;;;;4.06;100.00;99579.66;4869766;29;20038;-82
2022/12/23 01:50:34;;;;;;;14.80;8.20;;;;;;;4.01;100.00;99592.78;4859587;29;20056;-82
2022/12/23 01:53:05;;;;;;;15.17;8.03;;;;;;;4.03;100.00;99595.34;4855351;29;20427;-83
2022/12/23 01:55:53;;;;;;;13.73;7.50;;;;;;;3.99;100.00;99596.28;4873645;29;20136;-82
2022/12/23 01:58:23;;;;;;;15.33;8.00;;;;;;;4.00;100.00;99580.59;4829863;29;20067;-83
2022/12/23 02:03:42;;;;;;;21.47;11.23;;;;;;;4.03;100.00;99596.22;4870942;29;20045;-82
2022/12/23 02:11:44;;;;;;;12.57;7.07;;;;;;;3.97;100.00;99583.25;4853176;29;20053;-82
2022/12/23 02:17:16;;;;;;;14.40;7.00;;;;;;;3.98;100.00;99584.13;4862857;29;20084;-77
2022/12/23 02:20:09;;;;;;;10.23;6.37;;;;;;;3.98;100.00;99576.28;4864347;29;20068;-80
2022/12/23 02:23:14;;;;;;;13.73;6.80;;;;;;;3.95;100.00;99572.81;4844437;29;20058;-80
2022/12/23 02:25:53;;;;;;;14.48;7.38;;;;;;;4.02;100.00;99567.50;4877758;29;20050;-80
2022/12/23 02:28:35;;;;;;;14.43;7.10;;;;;;;4.01;100.00;99565.78;4861149;29;20056;-79
2022/12/23 02:31:09;;;;;;;12.70;7.23;;;;;;;4.02;100.00;99570.13;4863071;29;20071;-79
2022/12/23 02:33:50;;;;;;;13.90;6.93;;;;;;;4.00;100.00;99572.75;4848613;29;20053;-78
2022/12/23 02:36:22;;;;;;;16.23;7.63;;;;;;;3.99;100.00;99584.09;4851894;29;20049;-80
2022/12/23 02:39:07;;;;;;;11.90;5.80;;;;;;;4.00;100.00;99575.38;4877664;29;20042;-79
2022/12/23 02:41:52;;;;;;;11.70;5.93;;;;;;;4.02;100.00;99572.72;4866145;29;20064;-79
2022/12/23 02:44:30;;;;;;;13.93;6.97;;;;;;;4.01;100.00;99576.22;4869533;29;20049;-80
2022/12/23 02:47:00;;;;;;;12.23;6.63;;;;;;;4.03;100.00;99567.47;4859452;29;20491;-80
2022/12/23 02:49:33;;;;;;;13.87;7.30;;;;;;;4.02;100.00;99570.97;4855167;29;20046;-78
2022/12/23 02:52:03;;;;;;;17.60;8.20;;;;;;;4.01;100.00;99571.00;4870782;29;20086;-81
2022/12/23 02:54:35;;;;;;;16.37;7.13;;;;;;;3.99;100.00;99564.94;4844921;29;20052;-80
2022/12/23 02:57:03;;;;;;;16.77;8.53;;;;;;;4.00;100.00;99562.28;4863751;29;20042;-78
2022/12/23 02:59:34;;;;;;;16.77;8.57;;;;;;;4.02;100.00;99570.13;4873953;29;20042;-77
2022/12/23 03:02:01;;;;;;;19.17;9.83;;;;;;;4.05;100.00;99563.13;4844743;29;20053;-79
2022/12/23 03:04:28;;;;;;;17.40;7.80;;;;;;;4.03;100.00;99562.25;4843915;29;20045;-80
2022/12/23 03:06:55;;;;;;;19.03;7.97;;;;;;;4.00;100.00;99557.06;4855149;29;20076;-80
2022/12/23 03:09:30;;;;;;;17.13;9.03;;;;;;;4.10;100.00;99565.66;4858262;29;20045;-80
2022/12/23 03:12:21;;;;;;;17.33;7.30;;;;;;;4.07;100.00;99563.09;4873132;29;20041;-80
2022/12/23 03:14:57;;;;;;;20.67;9.60;;;;;;;4.15;100.00;99566.50;4857601;29;20052;-81
2022/12/23 03:17:42;;;;;;;23.27;8.93;;;;;;;4.07;100.00;99566.56;4860379;29;20049;-80
2022/12/23 03:20:37;;;;;;;20.67;8.90;;;;;;;4.04;100.00;99568.38;4873988;29;20097;-80
2022/12/23 03:23:22;;;;;;;;;;;;;;;4.00;100.00;99566.66;4873625;29;20048;-78
2022/12/23 03:25:58;;;;;;;17.63;7.77;;;;;;;3.99;100.00;99555.34;4855605;29;20343;-80
2022/12/23 03:28:40;;;;;;;17.53;8.53;;;;;;;4.00;100.00;99558.81;4862953;29;20049;-80
2022/12/23 03:31:10;;;;;;;19.07;9.13;;;;;;;4.01;100.00;99550.09;4855888;29;20046;-80
2022/12/23 03:33:40;;;;;;;19.00;8.83;;;;;;;4.01;100.00;99550.09;4858801;29;20045;-79
2022/12/23 03:36:22;;;;;;;21.53;10.17;;;;;;;3.99;100.00;99546.63;4860140;29;20050;-79
2022/12/23 03:38:50;;;;;;;19.87;9.87;;;;;;;3.98;100.00;99545.78;4861882;29;20492;-80
2022/12/23 03:41:21;;;;;;;17.50;8.43;;;;;;;3.99;100.00;99547.50;4856948;29;20045;-80
2022/12/23 03:43:54;;;;;;;16.17;8.23;;;;;;;4.00;100.00;99558.81;4857893;29;20033;-80
2022/12/23 03:46:37;;;;;;;22.67;8.13;;;;;;;4.01;100.00;99555.31;4854763;29;20042;-80
2022/12/23 03:49:16;;;;;;;20.00;8.93;;;;;;;3.99;100.00;99555.34;4880860;29;20101;-79
2022/12/23 03:52:01;;;;;;;18.90;8.23;;;;;;;4.04;100.00;99563.16;4834825;29;20057;-80
2022/12/23 03:54:42;;;;;;;21.17;9.73;;;;;;;4.13;100.00;99561.28;4877735;29;20049;-79
2022/12/23 03:57:09;;;;;;;17.33;8.03;;;;;;;4.07;100.00;99558.72;4877394;29;20046;-79
2022/12/23 03:59:39;;;;;;;20.47;9.20;;;;;;;4.11;100.00;99567.38;4865553;29;20069;-80
2022/12/23 04:02:15;;;;;;;17.93;8.13;;;;;;;4.05;100.00;99563.13;4866905;29;20045;-79
2022/12/23 04:05:18;;;;;;;14.57;7.13;;;;;;;4.01;100.00;99555.31;4852378;29;20145;-80
2022/12/23 04:07:50;;;;;;;13.97;6.83;;;;;;;4.00;100.00;99548.38;4880048;29;20430;-79
2022/12/23 04:10:18;;;;;;;17.53;8.20;;;;;;;3.98;100.00;99550.13;4850248;29;20050;-80
2022/12/23 04:12:44;;;;;;;18.53;7.53;;;;;;;3.96;100.00;99550.16;4863779;29;20064;-80
2022/12/23 04:15:11;;;;;;;14.77;7.33;;;;;;;3.97;100.00;99544.06;4881380;29;20046;-80
2022/12/23 04:17:39;;;;;;;16.97;7.03;;;;;;;3.95;100.00;99540.56;4865365;29;20072;-80
2022/12/23 04:20:06;;;;;;;25.80;8.57;;;;;;;3.95;100.00;99537.94;4859199;29;20042;-80
2022/12/23 04:22:33;;;;;;;14.60;6.50;;;;;;;3.95;100.00;99541.47;4868342;29;20053;-79
2022/12/23 04:24:59;;;;;;;13.17;5.70;;;;;;;3.93;100.00;99537.97;4856301;29;20038;-80
2022/12/23 04:27:26;;;;;;;11.60;5.37;;;;;;;3.93;100.00;99539.72;4861491;29;20041;-80
2022/12/23 04:29:52;;;;;;;12.43;5.97;;;;;;;3.92;100.00;99535.38;4873749;29;20426;-80
2022/12/23 04:32:19;;;;;;;13.27;7.27;;;;;;;3.88;100.00;99526.72;4857673;29;20089;-80
2022/12/23 04:34:46;;;;;;;14.90;7.03;;;;;;;3.91;100.00;99533.66;4877833;29;20083;-79
2022/12/23 04:37:13;;;;;;;13.37;7.10;;;;;;;3.92;100.00;99536.25;4862542;29;20049;-81
2022/12/23 04:39:39;;;;;;;15.07;6.63;;;;;;;3.88;100.00;99529.34;4862229;29;21629;-80
2022/12/23 04:42:06;;;;;;;16.57;8.07;;;;;;;3.87;100.00;99532.84;4843428;29;20042;-81
2022/12/23 04:44:32;;;;;;;12.47;6.03;;;;;;;3.88;100.00;99533.72;4859628;29;20492;-80
2022/12/23 04:46:59;;;;;;;16.30;7.03;;;;;;;3.86;100.00;99530.22;4861295;29;20049;-80
2022/12/23 04:49:26;;;;;;;15.50;6.37;;;;;;;3.87;100.00;99521.53;4873037;29;20046;-81
2022/12/23 04:51:52;;;;;;;17.13;7.90;;;;;;;3.87;100.00;99526.75;4859115;29;20049;-81
2022/12/23 04:54:19;;;;;;;15.77;6.90;;;;;;;3.87;100.00;99516.31;4841039;29;20432;-81
2022/12/23 04:56:46;;;;;;;14.63;8.77;;;;;;;3.90;100.00;99526.72;4872797;29;20041;-81
2022/12/23 04:59:13;;;;;;;17.47;8.90;;;;;;;3.86;100.00;99519.78;4841176;29;20415;-80
2022/12/23 05:01:41;;;;;;;15.40;7.40;;;;;;;3.85;100.00;99524.13;4877823;29;20052;-81
2022/12/23 05:04:08;;;;;;;14.23;7.23;;;;;;;3.84;100.00;99527.63;4857741;29;20060;-81
2022/12/23 05:06:36;;;;;;;16.33;6.87;;;;;;;3.84;100.00;99521.53;4845364;29;20057;-80
2022/12/23 05:09:03;;;;;;;13.47;6.53;;;;;;;3.80;100.00;99518.13;4851717;29;20463;-82
2022/12/23 05:11:30;;;;;;;13.27;7.23;;;;;;;3.78;100.00;99527.69;4842561;29;20049;-82
2022/12/23 05:14:04;;;;;;;11.38;5.95;;;;;;;3.76;100.00;99524.25;4844040;29;20076;-80
2022/12/23 05:16:30;;;;;;;11.17;6.73;;;;;;;3.75;100.00;99526.88;4882645;29;20703;-80
2022/12/23 05:18:57;;;;;;;20.13;8.73;;;;;;;3.74;100.00;99520.78;4859464;29;20049;-81
2022/12/23 05:21:24;;;;;;;18.20;9.57;;;;;;;3.74;100.00;99519.94;4843876;29;20042;-81
2022/12/23 05:23:51;;;;;;;18.20;9.07;;;;;;;3.73;100.00;99513.84;4858185;29;20045;-81
2022/12/23 05:26:18;;;;;;;19.03;8.17;;;;;;;3.73;100.00;99516.44;4860429;29;20064;-81
2022/12/23 05:28:44;;;;;;;21.00;8.73;;;;;;;3.74;100.00;99514.69;4855436;29;20444;-81
2022/12/23 05:31:11;;;;;;;20.47;9.27;;;;;;;3.79;100.00;99521.63;4858996;29;20049;-82
2022/12/23 05:33:38;;;;;;;20.60;9.00;;;;;;;3.78;100.00;99521.59;4866753;29;20491;-81
2022/12/23 05:36:06;;;;;;;17.20;8.83;;;;;;;3.76;100.00;99529.47;4861556;29;20117;-80
2022/12/23 05:38:32;;;;;;;14.17;6.97;;;;;;;3.78;100.00;99532.91;4841256;29;20053;-81
2022/12/23 05:40:59;;;;;;;16.37;7.87;;;;;;;3.77;100.00;99525.97;4842894;29;20041;-81
2022/12/23 05:43:26;;;;;;;16.73;7.73;;;;;;;3.75;100.00;99530.34;4843058;29;20122;-81
2022/12/23 05:45:53;;;;;;;13.57;7.27;;;;;;;3.76;100.00;99534.69;4871812;29;20037;-81
2022/12/23 05:48:19;;;;;;;13.03;6.00;;;;;;;3.76;100.00;99531.22;4867522;29;20431;-81
2022/12/23 05:50:50;;;;;;;12.73;6.53;;;;;;;3.75;100.00;99532.09;4859010;29;20044;-80
2022/12/23 05:53:18;;;;;;;13.80;6.63;;;;;;;3.75;100.00;99532.09;4848850;29;20099;-81
2022/12/23 05:55:45;;;;;;;12.63;5.97;;;;;;;3.74;100.00;99531.25;4837498;29;20444;-82
2022/12/23 05:58:11;;;;;;;11.93;6.00;;;;;;;3.79;100.00;99532.06;4842942;29;20045;-81
2022/12/23 06:00:38;;;;;;;11.43;6.80;;;;;;;3.83;100.00;99528.53;4861882;29;20037;-81
2022/12/23 06:03:05;;;;;;;10.07;5.17;;;;;;;3.83;100.00;99535.50;4855215;29;20074;-80
2022/12/23 06:05:35;;;;;;;10.20;5.90;;;;;;;3.79;100.00;99536.44;4860307;29;20045;-81
2022/12/23 06:08:02;;;;;;;8.97;4.70;;;;;;;3.78;100.00;99545.97;4844478;29;20453;-81
2022/12/23 06:10:29;;;;;;;9.90;4.37;;;;;;;3.76;100.00;99537.31;4844152;29;20046;-81
2022/12/23 06:12:55;;;;;;;9.27;5.27;;;;;;;3.77;100.00;99544.25;4854121;29;20452;-81
2022/12/23 06:15:22;;;;;;;28.20;9.10;;;;;;;3.76;100.00;99536.44;4852537;29;20061;-82
2022/12/23 06:17:49;;;;;;;11.97;6.33;;;;;;;3.78;100.00;99534.66;4854875;29;20069;-81
2022/12/23 06:20:15;;;;;;;12.63;6.30;;;;;;;3.74;100.00;99546.91;4855783;29;20046;-81
2022/12/23 06:22:46;;;;;;;12.37;6.07;;;;;;;3.73;100.00;99537.34;4843301;29;20136;-81
2022/12/23 06:25:13;;;;;;;11.83;5.10;;;;;;;3.70;100.00;99540.00;4872360;29;20046;-82
2022/12/23 06:27:39;;;;;;;9.33;4.67;;;;;;;3.71;100.00;99540.88;4843885;29;20495;-81
2022/12/23 06:30:07;;;;;;;8.67;4.50;;;;;;;3.72;100.00;99542.59;4855548;29;20045;-81
2022/12/23 06:32:33;;;;;;;12.63;6.13;;;;;;;3.73;100.00;99541.72;4853239;29;20526;-80
2022/12/23 06:35:05;;;;;;;11.37;5.60;;;;;;;3.79;100.00;99550.34;4861264;29;20199;-81
2022/12/23 06:37:33;;;;;;;10.33;4.83;;;;;;;3.83;100.00;99557.25;4828727;29;20878;-80
2022/12/23 06:39:59;;;;;;;10.67;5.30;;;;;;;3.75;100.00;99553.88;4842611;29;20033;-81
2022/12/23 06:42:26;;;;;;;9.87;4.73;;;;;;;3.71;100.00;99554.78;4859613;29;20423;-80
2022/12/23 06:44:53;;;;;;;7.97;4.30;;;;;;;3.71;100.00;99561.75;4856313;29;20042;-81
2022/12/23 06:47:20;;;;;;;6.37;4.17;;;;;;;3.69;100.00;99564.38;4837108;29;20045;-82
2022/12/23 06:49:46;;;;;;;7.73;4.77;;;;;;;3.67;100.00;99567.00;4843590;29;20465;-78
2022/12/23 06:52:13;;;;;;;6.60;3.17;;;;;;;3.66;100.00;99567.03;4846644;29;20065;-79
2022/12/23 06:54:40;;;;;;;7.80;4.40;;;;;;;3.69;100.00;99572.19;4861383;29;20037;-80
2022/12/23 06:57:06;;;;;;;8.40;4.27;;;;;;;3.71;100.00;99578.31;4869273;29;20048;-79
2022/12/23 07:04:00;;;;;;;14.60;5.53;;;;;;;3.67;100.00;99580.06;4865603;23;20456;-79
2022/12/23 07:06:27;;;;;;;7.70;3.37;;;;;;;3.68;100.00;99576.56;4852604;29;20049;-79
2022/12/23 07:08:54;;;;;;;6.57;3.73;;;;;;;3.70;100.00;99587.03;4854984;29;20041;-79
2022/12/23 07:11:21;;;;;;;9.63;3.63;;;;;;;3.69;100.00;99582.66;4870591;29;20067;-78
2022/12/23 07:13:47;;;;;;;6.57;3.30;;;;;;;3.67;100.00;99579.19;4855065;29;20700;-80
2022/12/23 07:16:14;;;;;;;7.27;3.90;;;;;;;3.66;100.00;99585.31;4870641;29;20385;-79
2022/12/23 07:18:41;;;;;;;6.27;3.63;;;;;;;3.65;100.00;99583.56;4855019;29;20057;-81
2022/12/23 07:21:07;;;;;;;6.50;3.10;;;;;;;3.61;100.00;99585.34;4842056;29;20065;-80
2022/12/23 07:23:50;;;;;;;6.23;3.90;;;;;;;3.60;100.00;99582.75;4862682;29;20045;-80
2022/12/23 07:26:16;;;;;;;7.90;3.70;;;;;;;3.59;100.00;99584.50;4870691;29;20052;-80
2022/12/23 07:28:47;;;;;;;7.33;3.57;;;;;;;3.58;100.00;99587.97;4839675;29;20113;-81
2022/12/23 07:31:14;;;;;;;5.03;4.07;;;;;;;3.57;100.00;99588.00;4841558;29;20475;-79
2022/12/23 07:33:41;;;;;;;7.17;3.67;;;;;;;3.57;100.00;99583.66;4839745;29;20057;-79
2022/12/23 07:36:08;;;;;;;8.13;3.73;;;;;;;3.56;100.00;99587.16;4862429;29;20045;-80
2022/12/23 07:38:34;;;;;;;7.40;4.40;;;;;;;3.55;100.00;99593.25;4838868;29;20037;-80
2022/12/23 07:41:01;;;;;;;7.17;3.97;;;;;;;3.52;100.00;99584.56;4855535;29;20037;-81
2022/12/23 07:43:28;;;;;;;10.07;4.90;;;;;;;3.60;100.00;99593.19;4839462;29;20049;-80
2022/12/23 07:45:54;;;;;;;8.40;4.77;;;;;;;3.55;100.00;99598.47;4851600;29;20049;-80
2022/12/23 07:48:26;;;;;;;10.17;5.50;;;;;;;3.50;100.00;99594.16;4848712;29;20049;-81
2022/12/23 07:50:59;;;;;;;8.53;4.70;;;;;;;3.50;100.00;99591.53;4849054;29;20044;-79
2022/12/23 07:53:25;;;;;;;8.60;4.30;;;;;;;3.48;100.00;99598.53;4833027;29;20118;-79
2022/12/23 07:55:52;;;;;;;7.13;3.80;;;;;;;3.48;100.00;99604.63;4836870;29;20105;-80
2022/12/23 07:58:22;;;;;;;9.43;4.53;;;;;;;3.52;100.00;99598.47;4837241;29;20068;-80
2022/12/23 08:00:49;;;;;;;12.27;6.67;;;;;;;3.58;100.00;99600.19;4846848;29;20668;-80
2022/12/23 08:03:16;;;;;;;13.13;6.77;;;;;;;3.53;100.00;99604.56;4832717;29;20491;-80
2022/12/23 08:05:42;;;;;;;10.23;5.10;;;;;;;3.52;100.00;99608.91;4845426;29;20054;-79
2022/12/23 08:08:09;;;;;;;9.07;5.00;;;;;;;3.56;100.00;99612.41;4853029;29;20049;-80
2022/12/23 08:10:36;;;;;;;8.50;4.40;;;;;;;3.61;100.00;99611.44;4855135;29;20039;-79
2022/12/23 08:13:09;;;;;;;8.63;4.93;;;;;;;3.67;100.00;99620.97;4855717;29;20159;-79
2022/12/23 08:15:36;;;;;;;11.07;5.03;;;;;;;3.68;100.00;99625.31;4856362;29;20093;-80
2022/12/23 08:18:03;;;;;;;10.73;5.60;;;;;;;3.67;100.00;99631.44;4825697;29;20046;-80
2022/12/23 08:20:29;;;;;;;11.40;5.43;;;;;;;3.72;100.00;99641.84;4857530;29;20189;-80
2022/12/23 08:22:56;;;;;;;9.90;4.90;;;;;;;3.74;100.00;99646.19;4840715;29;20049;-80
2022/12/23 08:25:23;;;;;;;10.37;5.23;;;;;;;3.80;100.00;99651.34;4853138;29;20090;-80
2022/12/23 08:27:50;;;;;;;9.33;5.07;;;;;;;3.84;100.00;99653.03;4856517;29;20042;-80
2022/12/23 08:30:17;;;;;;;12.27;5.77;;;;;;;3.87;100.00;99649.56;4838981;29;20052;-81
2022/12/23 08:32:44;;;;;;;12.67;6.53;;;;;;;3.91;100.00;99644.28;4837245;29;20772;-80
2022/12/23 08:35:11;;;;;;;12.13;5.37;;;;;;;3.93;100.00;99646.84;4833478;29;20576;-79
2022/12/23 08:37:37;;;;;;;10.47;5.43;;;;;;;3.97;100.00;99652.94;4833897;29;20049;-81
2022/12/23 08:40:04;;;;;;;11.80;6.23;;;;;;;3.98;100.00;99657.28;4851031;29;20053;-80
2022/12/23 08:42:31;;;;;;;14.67;7.43;;;;;;;3.99;100.00;99664.25;4855309;29;20033;-80
2022/12/23 08:44:58;;;;;;;12.87;7.37;;;;;;;4.00;100.00;99664.22;4841264;29;20549;-81
2022/12/23 08:47:25;;;;;;;17.27;8.60;;;;;;;4.03;100.00;99655.47;4855737;29;20049;-80
2022/12/23 08:49:52;;;;;;;12.03;7.13;;;;;;;4.04;100.00;99660.72;4830363;29;20095;-79
2022/12/23 08:52:19;;;;;;;15.87;8.67;;;;;;;4.06;100.00;99653.72;4855326;29;20040;-79
2022/12/23 08:54:45;;;;;;;14.57;7.87;;;;;;;4.11;100.00;99649.28;4861611;29;20041;-78
2022/12/23 08:57:13;;;;;;;15.13;7.67;;;;;;;4.14;100.00;99656.25;4866532;29;20041;-79
2022/12/23 08:59:39;;;;;;;17.07;8.50;;;;;;;4.19;100.00;99662.28;4874357;29;20124;-79
2022/12/23 09:02:09;;;;;;;17.97;9.47;;;;;;;4.22;100.00;99650.06;4855058;29;20041;-80
2022/12/23 09:04:36;;;;;;;18.67;8.50;;;;;;;4.26;100.00;99665.69;4870892;29;20425;-81
2022/12/23 09:07:02;;;;;;;20.73;10.43;;;;;;;4.28;100.00;99667.41;4836581;29;20083;-80
2022/12/23 09:09:29;;;;;;;24.93;10.97;;;;;;;4.32;100.00;99669.13;4832813;29;20983;-80
2022/12/23 09:11:56;;;;;;;24.83;11.77;;;;;;;4.38;100.00;99663.81;4846219;29;20045;-80
2022/12/23 09:14:23;;;;;;;25.60;10.70;;;;;;;4.44;100.00;99665.47;4852789;29;20045;-81
2022/12/23 09:16:51;;;;;;;29.30;12.83;;;;;;;4.50;100.00;99668.91;4850031;29;20038;-79
2022/12/23 09:19:18;;;;;;;28.23;12.17;;;;;;;4.62;100.00;99669.63;4850820;29;20057;-81
2022/12/23 09:21:44;;;;;;;32.73;12.17;;;;;;;4.65;100.00;99674.84;4821484;29;20045;-80
2022/12/23 09:24:11;;;;;;;30.17;13.93;;;;;;;4.69;100.00;99671.28;4864406;29;20045;-79
2022/12/23 09:26:38;;;;;;;29.40;12.77;;;;;;;4.73;100.00;99679.09;4864643;29;20144;-79
2022/12/23 09:29:04;;;;;;;30.17;13.23;;;;;;;4.79;100.00;99685.97;4846844;29;20074;-79
2022/12/23 09:31:31;;;;;;;31.63;13.73;;;;;;;4.86;100.00;99697.25;4848447;29;20061;-78
2022/12/23 09:34:03;;;;;;;25.70;12.67;;;;;;;4.90;100.00;99694.59;4865949;29;20049;-78
2022/12/23 09:36:30;;;;;;;30.20;13.20;;;;;;;4.94;100.00;99704.13;4864600;29;20052;-79
2022/12/23 09:38:57;;;;;;;29.03;11.93;;;;;;;4.95;100.00;99705.84;4847164;29;20073;-80
2022/12/23 09:41:45;;;;;;;27.47;11.60;;;;;;;4.94;100.00;99698.00;4850886;29;20041;-80
2022/12/23 09:44:15;;;;;;;26.63;11.17;;;;;;;5.03;100.00;99709.22;4871465;29;20049;-79
2022/12/23 09:46:50;;;;;;;26.40;12.00;;;;;;;4.97;100.00;99709.31;4848658;29;20046;-79
2022/12/23 09:49:17;;;;;;;30.77;12.53;;;;;;;4.97;100.00;99703.22;4867034;29;20049;-80
2022/12/23 09:51:45;;;;;;;29.23;12.30;;;;;;;5.00;100.00;99705.78;4855548;29;20040;-79
2022/12/23 09:54:44;;;;;;;30.70;12.50;;;;;;;5.06;100.00;99711.81;4862364;29;20049;-80
2022/12/23 09:57:35;;;;;;;33.87;12.03;;;;;;;5.10;100.00;99704.78;4858627;29;20069;-79
2022/12/23 10:00:06;;;;;;;26.70;11.73;;;;;;;5.14;100.00;99708.25;4873354;29;20049;-79
2022/12/23 10:03:02;;;;;;;24.93;11.63;;;;;;;5.16;100.00;99715.19;4845423;29;20045;-80
2022/12/23 10:05:36;;;;;;;35.23;13.13;;;;;;;5.20;100.00;99721.22;4844825;29;20061;-80
2022/12/23 10:08:11;;;;;;;25.55;12.00;;;;;;;5.24;100.00;99720.31;4865274;29;20056;-78
2022/12/23 10:10:47;;;;;;;25.40;11.70;;;;;;;5.26;100.00;99716.78;4846494;29;20101;-79
2022/12/23 10:13:34;;;;;;;26.50;12.27;;;;;;;5.32;100.00;99731.53;4863009;29;20050;-78
2022/12/23 10:16:12;;;;;;;37.27;19.23;;;;;;;5.35;100.00;99729.72;4860977;29;20037;-79
2022/12/23 10:18:49;;;;;;;30.33;17.07;;;;;;;5.44;100.00;99725.25;4869768;29;20631;-79
2022/12/23 10:21:31;;;;;;;27.40;15.10;;;;;;;5.44;100.00;99726.13;4842781;29;20050;-79
2022/12/23 10:24:01;;;;;;;26.30;11.83;;;;;;;5.47;100.00;99731.34;4859978;29;20451;-78
2022/12/23 10:26:30;;;;;;;21.73;10.37;;;;;;;5.51;100.00;99735.63;4865245;29;20053;-78
2022/12/23 10:29:30;;;;;;;22.47;10.83;;;;;;;5.60;100.00;99735.47;4859708;29;20640;-78
2022/12/23 10:32:15;;;;;;;24.83;14.57;;;;;;;5.60;100.00;99738.09;4866507;29;20042;-78
2022/12/23 10:35:12;;;;;;;33.80;23.33;;;;;;;5.61;100.00;99742.44;4861727;29;20046;-78
2022/12/23 10:37:54;;;;;;;33.27;18.83;;;;;;;5.68;100.00;99738.00;4844399;29;20049;-79
2022/12/23 10:41:00;;;;;;;23.67;15.33;;;;;;;5.69;100.00;99739.72;4859018;29;20193;-79
2022/12/23 10:43:59;;;;;;;22.40;15.50;;;;;;;5.78;100.00;99746.56;4863444;29;20491;-78
2022/12/23 10:46:44;;;;;;;23.73;15.53;;;;;;;5.76;100.00;99741.34;4860810;29;20074;-78
2022/12/23 10:49:33;;;;;;;20.00;12.17;;;;;;;5.82;100.00;99743.03;4855420;29;20045;-77
2022/12/23 10:52:08;;;;;;;22.23;10.87;;;;;;;5.85;100.00;99742.97;4853743;29;20065;-78
2022/12/23 10:54:36;;;;;;;21.10;11.25;;;;;;;5.89;100.00;99747.28;4843113;29;20105;-78
2022/12/23 10:57:04;;;;;;;24.93;13.97;;;;;;;5.93;100.00;99743.75;4843060;29;20634;-78
2022/12/23 10:59:33;;;;;;;26.70;13.87;;;;;;;5.93;100.00;99742.00;4863564;29;20045;-76
2022/12/23 11:02:11;;;;;;;21.43;11.80;;;;;;;6.08;100.00;99748.75;4843560;29;20037;-80
2022/12/23 11:04:41;;;;;;;21.60;11.73;;;;;;;6.01;100.00;99746.25;4861799;29;20060;-80
2022/12/23 11:07:11;;;;;;;22.47;10.10;;;;;;;6.01;100.00;99747.09;4852663;29;20050;-77
2022/12/23 11:10:07;;;;;;;19.23;9.87;;;;;;;6.12;100.00;99745.16;4859951;29;20061;-80
2022/12/23 11:12:42;;;;;;;19.10;9.60;;;;;;;6.09;100.00;99742.59;4852238;29;20063;-80
2022/12/23 11:15:28;;;;;;;23.40;11.50;;;;;;;6.08;100.00;99733.00;4853190;29;20424;-81
2022/12/23 11:18:06;;;;;;;24.10;14.57;;;;;;;6.14;100.00;99734.66;4852459;29;20037;-80
2022/12/23 11:20:35;;;;;;;23.93;12.07;;;;;;;6.18;100.00;99721.47;4839138;29;20574;-81
2022/12/23 11:23:03;;;;;;;19.20;9.10;;;;;;;6.19;100.00;99722.31;4841335;29;20579;-81
2022/12/23 11:25:39;;;;;;;21.53;11.70;;;;;;;6.27;100.00;99703.81;4869352;29;20038;-81
2022/12/23 11:28:09;;;;;;;21.60;10.50;;;;;;;6.34;100.00;99705.44;4865337;29;20042;-81
2022/12/23 11:30:46;;;;;;;19.17;9.07;;;;;;;6.31;100.00;99701.13;4836032;29;20109;-80
2022/12/23 11:33:30;;;;;;;18.27;10.47;;;;;;;6.24;100.00;99710.00;4864131;29;20131;-82
2022/12/23 11:36:01;;;;;;;16.80;9.00;;;;;;;6.19;100.00;99712.69;4856063;29;20049;-82
2022/12/23 11:38:28;;;;;;;22.03;11.23;;;;;;;6.36;100.00;99719.41;4853852;29;20045;-78
2022/12/23 11:40:55;;;;;;;25.60;12.40;;;;;;;6.32;100.00;99715.13;4821718;29;20408;-82
2022/12/23 11:43:22;;;;;;;23.17;11.20;;;;;;;6.37;100.00;99715.88;4854818;29;20068;-81
2022/12/23 11:46:12;;;;;;;23.57;12.17;;;;;;;6.43;100.00;99707.91;4850381;29;20069;-81
2022/12/23 11:48:38;;;;;;;28.00;13.10;;;;;;;6.40;100.00;99716.69;4853483;29;20481;-81
2022/12/23 11:51:05;;;;;;;27.70;14.03;;;;;;;6.49;100.00;99721.78;4857486;29;20053;-81
2022/12/23 11:53:32;;;;;;;27.90;11.97;;;;;;;6.55;100.00;99733.03;4853528;29;20049;-81
2022/12/23 11:56:04;;;;;;;21.20;10.57;;;;;;;6.56;100.00;99735.66;4838161;29;20056;-80
2022/12/23 11:58:38;;;;;;;20.30;10.37;;;;;;;6.44;100.00;99744.59;4853119;29;20037;-81
2022/12/23 12:01:07;;;;;;;22.57;10.47;;;;;;;6.50;100.00;99741.00;4851445;29;20481;-81
2022/12/23 12:03:46;;;;;;;21.07;10.93;;;;;;;6.39;100.00;99743.84;4839847;29;20094;-83
2022/12/23 12:06:14;;;;;;;19.30;10.87;;;;;;;6.33;100.00;99738.69;4836646;29;20084;-82
2022/12/23 12:08:41;;;;;;;18.00;9.80;;;;;;;6.39;100.00;99742.94;4838244;29;20045;-81
2022/12/23 12:11:15;;;;;;;18.83;10.07;;;;;;;6.42;100.00;99746.38;4838901;29;20518;-81
2022/12/23 12:13:44;;;;;;;18.88;9.98;;;;;;;6.36;100.00;99746.50;4848833;29;20048;-81